createdAt,value
2023-02-28T07:03:24.481Z,9.60
2023-02-28T07:05:52.588Z,8.18
2023-02-28T07:08:19.882Z,8.52
2023-02-28T07:10:47.252Z,7.35
2023-02-28T07:13:14.484Z,8.50
2023-02-28T07:15:44.135Z,7.63
2023-02-28T07:18:11.850Z,9.60
2023-02-28T07:20:39.265Z,9.95
2023-02-28T07:23:06.626Z,8.35
2023-02-28T07:25:34.106Z,9.18
2023-02-28T07:28:01.596Z,9.20
2023-02-28T07:30:28.884Z,8.07
2023-02-28T07:32:57.076Z,8.63
2023-02-28T07:35:24.736Z,9.10
2023-02-28T07:37:52.425Z,11.50
2023-02-28T07:40:19.765Z,8.23
2023-02-28T07:42:47.073Z,9.75
2023-02-28T07:45:18.575Z,7.72
2023-02-28T07:47:46.735Z,6.90
2023-02-28T07:50:16.247Z,8.07
2023-02-28T07:52:43.885Z,8.52
2023-02-28T07:55:11.643Z,11.27
2023-02-28T07:57:38.884Z,8.27
2023-02-28T08:00:10.247Z,9.15
2023-02-28T08:02:41.625Z,9.57
2023-02-28T08:05:09.420Z,12.65
2023-02-28T08:07:36.764Z,10.43
2023-02-28T08:10:06.676Z,12.68
2023-02-28T08:12:34.101Z,12.88
2023-02-28T08:15:01.363Z,7.40
2023-02-28T08:17:28.711Z,10.90
2023-02-28T08:19:56.171Z,8.52
2023-02-28T08:22:23.439Z,9.10
2023-02-28T08:24:50.711Z,9.50
2023-02-28T08:27:18.414Z,8.85
2023-02-28T08:29:45.884Z,8.73
2023-02-28T08:32:28.590Z,9.10
2023-02-28T08:34:57.128Z,9.15
2023-02-28T08:37:24.561Z,10.68
2023-02-28T08:39:54.723Z,9.93
2023-02-28T08:42:24.592Z,9.90
2023-02-28T08:44:52.107Z,8.80
2023-02-28T08:47:19.767Z,8.68
2023-02-28T08:49:47.270Z,8.50
2023-02-28T08:52:14.557Z,8.60
2023-02-28T08:54:41.911Z,8.30
2023-02-28T08:57:09.247Z,8.10
2023-02-28T08:59:36.570Z,11.68
2023-02-28T09:02:04.008Z,7.82
2023-02-28T09:04:31.975Z,10.25
2023-02-28T09:06:59.974Z,8.07
2023-02-28T09:09:27.197Z,8.38
2023-02-28T09:11:57.365Z,6.85
2023-02-28T09:14:24.906Z,9.80
2023-02-28T09:16:52.161Z,7.32
2023-02-28T09:19:19.441Z,8.43
2023-02-28T09:21:46.685Z,9.85
2023-02-28T09:24:16.083Z,7.88
2023-02-28T09:26:56.383Z,8.45
2023-02-28T09:29:31.652Z,7.82
2023-02-28T09:31:59.698Z,8.70
2023-02-28T09:34:28.170Z,6.82
2023-02-28T09:36:55.957Z,6.75
2023-02-28T09:39:23.994Z,7.00
2023-02-28T09:41:56.353Z,8.02
2023-02-28T09:44:27.929Z,7.40
2023-02-28T09:47:20.314Z,8.80
2023-02-28T09:49:48.974Z,8.25
2023-02-28T09:52:32.408Z,7.93
2023-02-28T09:55:19.385Z,7.93
2023-02-28T10:00:26.424Z,6.88
2023-02-28T10:02:59.743Z,7.53
2023-02-28T10:05:34.020Z,7.95
2023-02-28T10:08:31.038Z,8.27
2023-02-28T10:11:10.120Z,7.03
2023-02-28T10:13:43.826Z,7.47
2023-02-28T10:16:15.550Z,7.00
2023-02-28T10:18:50.136Z,6.53
2023-02-28T10:21:43.845Z,6.25
2023-02-28T10:24:34.350Z,8.27
2023-02-28T10:27:18.452Z,8.75
2023-02-28T10:29:48.246Z,8.35
2023-02-28T10:32:18.897Z,9.00
2023-02-28T10:34:55.048Z,7.93
2023-02-28T10:37:22.599Z,8.60
2023-02-28T10:39:49.919Z,9.57
2023-02-28T10:42:22.130Z,9.93
2023-02-28T10:44:49.493Z,8.52
2023-02-28T10:47:18.848Z,9.30
2023-02-28T10:49:51.314Z,8.10
2023-02-28T10:52:38.122Z,10.20
2023-02-28T10:55:25.943Z,9.88
2023-02-28T10:57:53.823Z,9.75
2023-02-28T11:00:23.599Z,10.70
2023-02-28T11:02:50.918Z,10.88
2023-02-28T11:05:36.910Z,11.07
2023-02-28T11:08:16.009Z,10.05
2023-02-28T11:11:06.990Z,10.50
2023-02-28T11:13:37.342Z,10.27
2023-02-28T11:16:11.298Z,10.45
2023-02-28T11:18:43.326Z,8.27
2023-02-28T11:21:17.996Z,11.52
2023-02-28T11:23:45.371Z,9.82
2023-02-28T11:26:12.806Z,9.63
2023-02-28T11:28:41.920Z,9.20
2023-02-28T11:31:15.216Z,8.93
2023-02-28T11:33:51.812Z,8.48
2023-02-28T11:36:31.595Z,9.18
2023-02-28T11:39:10.733Z,8.25
2023-02-28T11:41:50.886Z,10.02
2023-02-28T11:44:42.914Z,8.85
2023-02-28T11:47:39.622Z,11.25
2023-02-28T11:50:45.664Z,8.75
2023-02-28T11:53:34.685Z,10.15
2023-02-28T11:56:30.799Z,9.27
2023-02-28T11:59:36.603Z,9.52
2023-02-28T12:02:39.106Z,10.63
2023-02-28T12:05:28.076Z,10.15
2023-02-28T12:08:10.936Z,8.07
2023-02-28T12:10:44.811Z,10.35
2023-02-28T12:13:21.523Z,10.90
2023-02-28T12:16:26.794Z,9.40
2023-02-28T12:19:03.264Z,8.35
2023-02-28T12:21:54.723Z,10.68
2023-02-28T12:24:56.010Z,10.07
2023-02-28T12:27:27.831Z,10.57
2023-02-28T12:30:04.120Z,9.15
2023-02-28T12:35:09.953Z,10.32
2023-02-28T12:37:48.036Z,9.65
2023-02-28T12:40:29.880Z,9.23
2023-02-28T12:43:05.322Z,10.10
2023-02-28T12:45:49.440Z,13.63
2023-02-28T12:48:30.396Z,11.48
2023-02-28T12:50:59.154Z,11.07
2023-02-28T12:53:56.013Z,10.93
2023-02-28T12:56:56.321Z,10.48
2023-02-28T13:00:01.642Z,11.38
2023-02-28T13:02:29.139Z,12.27
2023-02-28T13:05:15.904Z,10.80
2023-02-28T13:08:14.277Z,12.07
2023-02-28T13:10:55.658Z,14.30
2023-02-28T13:13:26.782Z,10.27
2023-02-28T13:16:03.453Z,10.55
2023-02-28T13:18:32.541Z,11.20
2023-02-28T13:21:02.045Z,10.80
2023-02-28T13:23:57.006Z,12.40
2023-02-28T13:26:44.914Z,11.02
2023-02-28T13:29:12.254Z,17.95
2023-02-28T13:32:07.055Z,10.27
2023-02-28T13:34:58.495Z,12.70
2023-02-28T13:37:25.860Z,12.98
2023-02-28T13:40:08.056Z,14.70
2023-02-28T13:42:39.992Z,14.32
2023-02-28T13:45:07.818Z,11.45
2023-02-28T13:47:40.911Z,11.23
2023-02-28T13:50:27.244Z,14.45
2023-02-28T13:53:15.954Z,13.98
2023-02-28T13:55:43.291Z,11.73
2023-02-28T13:58:37.958Z,10.60
2023-02-28T14:01:24.116Z,13.25
2023-02-28T14:04:22.348Z,11.38
2023-02-28T14:06:52.910Z,14.52
2023-02-28T14:09:42.350Z,11.80
2023-02-28T14:12:47.670Z,11.48
2023-02-28T14:15:34.107Z,11.52
2023-02-28T14:18:04.231Z,12.85
2023-02-28T14:20:34.332Z,10.43
2023-02-28T14:23:25.419Z,11.13
2023-02-28T14:26:04.443Z,12.32
2023-02-28T14:28:49.873Z,11.90
2023-02-28T14:31:45.051Z,13.00
2023-02-28T14:34:51.953Z,13.38
2023-02-28T14:37:29.317Z,10.77
2023-02-28T14:39:58.444Z,13.13
2023-02-28T14:42:39.054Z,12.05
2023-02-28T14:45:06.916Z,14.02
2023-02-28T14:47:36.315Z,15.13
2023-02-28T14:50:05.579Z,14.25
2023-02-28T14:52:34.000Z,13.27
2023-02-28T14:55:08.266Z,12.70
2023-02-28T14:57:42.130Z,11.70
2023-02-28T15:00:47.769Z,10.98
2023-02-28T15:03:36.936Z,13.70
2023-02-28T15:06:18.446Z,13.30
2023-02-28T15:08:46.663Z,14.95
2023-02-28T15:11:23.410Z,12.57
2023-02-28T15:13:54.209Z,10.77
2023-02-28T15:16:25.588Z,12.35
2023-02-28T15:19:04.214Z,13.77
2023-02-28T15:21:35.140Z,11.85
2023-02-28T15:24:08.507Z,13.48
2023-02-28T15:26:42.004Z,11.82
2023-02-28T15:29:19.885Z,12.65
2023-02-28T15:31:57.566Z,9.98
2023-02-28T15:34:36.952Z,11.43
2023-02-28T15:37:28.254Z,13.57
2023-02-28T15:39:59.332Z,11.00
2023-02-28T15:42:30.318Z,15.88
2023-02-28T15:44:58.344Z,11.05
2023-02-28T15:47:29.749Z,14.93
2023-02-28T15:50:13.522Z,12.35
2023-02-28T15:52:44.169Z,13.38
2023-02-28T15:55:29.134Z,12.02
2023-02-28T15:57:59.674Z,12.57
2023-02-28T16:00:29.844Z,12.02
2023-02-28T16:02:57.644Z,12.82
2023-02-28T16:05:32.894Z,11.80
2023-02-28T16:08:16.108Z,13.27
2023-02-28T16:10:44.373Z,14.45
2023-02-28T16:13:16.053Z,14.13
2023-02-28T16:15:44.669Z,12.80
2023-02-28T16:18:13.164Z,11.82
2023-02-28T16:20:40.816Z,14.80
2023-02-28T16:23:09.064Z,11.13
2023-02-28T16:25:42.828Z,13.05
2023-02-28T16:28:20.385Z,16.35
2023-02-28T16:30:47.958Z,11.90
2023-02-28T16:33:15.200Z,15.73
2023-02-28T16:35:42.468Z,12.30
2023-02-28T16:38:10.700Z,12.13
2023-02-28T16:40:38.214Z,14.75
2023-02-28T16:43:22.175Z,12.55
2023-02-28T16:45:49.509Z,13.40
2023-02-28T16:48:17.510Z,13.57
2023-02-28T16:50:45.532Z,13.10
2023-02-28T16:53:12.872Z,13.40
2023-02-28T16:55:40.439Z,13.32
2023-02-28T16:58:07.833Z,15.70
2023-02-28T17:00:35.216Z,16.15
2023-02-28T17:03:05.771Z,14.05
2023-02-28T17:05:39.303Z,14.50
2023-02-28T17:08:07.435Z,13.20
2023-02-28T17:10:36.555Z,13.95
2023-02-28T17:13:14.429Z,13.52
2023-02-28T17:15:42.843Z,12.43
2023-02-28T17:18:16.625Z,14.73
2023-02-28T17:20:43.978Z,12.93
2023-02-28T17:23:11.279Z,13.32
2023-02-28T17:25:39.409Z,14.07
2023-02-28T17:28:06.817Z,12.68
2023-02-28T17:30:35.872Z,12.23
2023-02-28T17:33:03.318Z,19.65
2023-02-28T17:35:43.281Z,15.10
2023-02-28T17:38:19.201Z,14.82
2023-02-28T17:40:46.818Z,16.80
2023-02-28T17:43:15.676Z,17.35
2023-02-28T17:45:43.268Z,17.15
2023-02-28T17:48:13.264Z,17.88
2023-02-28T17:50:41.017Z,14.70
2023-02-28T17:53:08.369Z,18.00
2023-02-28T17:55:36.186Z,18.08
2023-02-28T17:58:04.169Z,14.52
2023-02-28T18:00:34.439Z,14.27
2023-02-28T18:03:01.867Z,15.15
2023-02-28T18:05:29.243Z,15.48
2023-02-28T18:07:57.534Z,16.23
2023-02-28T18:10:25.087Z,15.20
2023-02-28T18:12:53.074Z,18.73
2023-02-28T18:15:22.714Z,15.07
2023-02-28T18:17:50.604Z,15.65
2023-02-28T18:20:19.050Z,16.05
2023-02-28T18:22:47.643Z,19.08
2023-02-28T18:25:17.227Z,17.38
2023-02-28T18:27:58.564Z,20.13
2023-02-28T18:30:30.820Z,15.52
2023-02-28T18:32:59.769Z,17.45
2023-02-28T18:35:37.439Z,19.23
2023-02-28T18:38:22.551Z,18.70
2023-02-28T18:40:59.264Z,18.58
2023-02-28T18:43:30.960Z,17.15
2023-02-28T18:45:58.454Z,18.75
2023-02-28T18:48:25.862Z,19.33
2023-02-28T18:50:53.166Z,20.95
2023-02-28T18:53:20.571Z,17.25
2023-02-28T18:55:47.942Z,19.77
2023-02-28T18:58:15.412Z,16.90
2023-02-28T19:00:46.673Z,16.20
2023-02-28T19:03:14.085Z,18.60
2023-02-28T19:05:41.418Z,20.20
2023-02-28T19:08:09.285Z,19.80
2023-02-28T19:10:40.127Z,19.60
2023-02-28T19:13:07.458Z,19.77
2023-02-28T19:15:34.833Z,19.50
2023-02-28T19:18:02.152Z,19.83
2023-02-28T19:20:29.652Z,17.92
2023-02-28T19:22:57.215Z,17.38
2023-02-28T19:25:24.738Z,19.05
2023-02-28T19:27:55.816Z,17.15
2023-02-28T19:30:23.938Z,18.65
2023-02-28T19:32:51.657Z,22.10
2023-02-28T19:35:19.197Z,17.35
2023-02-28T19:37:46.672Z,17.88
2023-02-28T19:40:14.169Z,19.95
2023-02-28T19:42:41.513Z,18.38
2023-02-28T19:45:14.823Z,18.83
2023-02-28T19:47:42.608Z,19.30
2023-02-28T19:50:10.510Z,24.35
2023-02-28T19:52:37.934Z,21.73
2023-02-28T19:55:05.664Z,22.55
2023-02-28T19:57:32.988Z,24.23
2023-02-28T20:00:00.404Z,20.27
2023-02-28T20:02:27.778Z,20.45
2023-02-28T20:04:59.203Z,21.05
2023-02-28T20:07:28.465Z,27.08
2023-02-28T20:09:55.839Z,23.77
2023-02-28T20:12:24.385Z,25.35
2023-02-28T20:14:55.989Z,18.38
2023-02-28T20:17:24.384Z,20.42
2023-02-28T20:19:51.956Z,19.05
2023-02-28T20:22:19.289Z,18.25
2023-02-28T20:24:48.159Z,19.80
2023-02-28T20:27:15.787Z,20.67
2023-02-28T20:29:43.253Z,23.58
2023-02-28T20:32:11.021Z,20.83
2023-02-28T20:34:38.421Z,21.27
2023-02-28T20:37:05.785Z,21.52
2023-02-28T20:39:33.031Z,23.20
2023-02-28T20:42:00.407Z,20.88
2023-02-28T20:44:27.757Z,25.00
2023-02-28T20:46:55.038Z,24.65
2023-02-28T20:49:23.204Z,20.25
2023-02-28T20:51:50.694Z,23.80
2023-02-28T20:54:18.348Z,20.00
2023-02-28T20:56:45.935Z,20.75
2023-02-28T20:59:13.593Z,20.20
2023-02-28T21:01:42.889Z,21.70
2023-02-28T21:04:10.398Z,23.83
2023-02-28T21:06:41.928Z,19.67
2023-02-28T21:09:12.170Z,20.15
2023-02-28T21:11:40.753Z,21.02
2023-02-28T21:14:18.246Z,18.58
2023-02-28T21:16:47.460Z,21.00
2023-02-28T21:19:15.671Z,20.58
2023-02-28T21:21:44.880Z,22.05
2023-02-28T21:24:14.121Z,23.95
2023-02-28T21:26:44.362Z,20.33
2023-02-28T21:29:12.729Z,24.88
2023-02-28T21:31:40.347Z,22.30
2023-02-28T21:34:09.704Z,26.55
2023-02-28T21:36:40.371Z,26.58
2023-02-28T21:39:13.939Z,26.63
2023-02-28T21:41:41.856Z,36.30
2023-02-28T21:44:18.078Z,28.88
2023-02-28T21:46:50.263Z,32.28
2023-02-28T21:49:18.264Z,30.15
2023-02-28T21:51:45.796Z,33.28
2023-02-28T21:54:13.890Z,31.08
2023-02-28T21:56:41.354Z,34.35
2023-02-28T21:59:10.318Z,32.78
2023-02-28T22:01:40.759Z,32.17
2023-02-28T22:04:11.028Z,34.72
2023-02-28T22:06:41.263Z,34.22
2023-02-28T22:09:12.318Z,33.67
2023-02-28T22:11:40.017Z,32.60
2023-02-28T22:14:09.314Z,38.72
2023-02-28T22:16:50.779Z,37.42
2023-02-28T22:19:19.794Z,39.65
2023-02-28T22:21:47.541Z,35.08
2023-02-28T22:24:17.491Z,32.72
2023-02-28T22:26:45.236Z,32.08
2023-02-28T22:29:12.481Z,31.42
2023-02-28T22:31:39.862Z,21.52
2023-02-28T22:34:09.535Z,27.15
2023-02-28T22:36:37.047Z,25.35
2023-02-28T22:39:06.005Z,19.25
2023-02-28T22:41:33.223Z,16.95
2023-02-28T22:44:03.325Z,17.95
2023-02-28T22:46:32.872Z,15.40
2023-02-28T22:49:02.001Z,14.95
2023-02-28T22:51:29.798Z,12.68
2023-02-28T22:53:58.512Z,13.65
2023-02-28T22:56:29.371Z,11.98
2023-02-28T22:58:58.410Z,11.65
2023-02-28T23:01:28.961Z,12.73
2023-02-28T23:03:57.153Z,11.18
2023-02-28T23:06:34.157Z,16.25
2023-02-28T23:09:07.171Z,20.52
2023-02-28T23:11:39.171Z,19.88
2023-02-28T23:14:06.810Z,25.05
2023-02-28T23:16:42.082Z,22.30
2023-02-28T23:19:40.068Z,25.52
2023-02-28T23:22:07.447Z,25.52
2023-02-28T23:24:36.837Z,24.60
2023-02-28T23:27:06.036Z,24.50
2023-02-28T23:29:34.739Z,21.83
2023-02-28T23:32:02.463Z,24.73
2023-02-28T23:34:32.968Z,21.52
2023-02-28T23:37:01.886Z,22.35
2023-02-28T23:39:31.163Z,19.73
2023-02-28T23:41:59.385Z,20.40
2023-02-28T23:44:26.654Z,22.15
2023-02-28T23:46:54.035Z,20.65
2023-02-28T23:49:22.114Z,22.42
2023-02-28T23:51:50.458Z,19.75
2023-02-28T23:54:18.842Z,21.35
2023-02-28T23:56:46.225Z,20.92
2023-02-28T23:59:13.605Z,19.55
